Time;durP1;ratioP1;P1;durP2;ratioP2;P2;SDS_P1;SDS_P2;PMS_P1;PMS_P2;Temp;Humidity;BMP_temperature;BMP_pressure;BME280_temperature;BME280_humidity;BME280_pressure;Samples;Min_cycle;Max_cycle;Signal;HPM_P1;HPM_P2
2024/02/04 00:00:13;;;;;;;7.03;4.78;;;;;;;2.21;100.00;97842.72;5056342;28;20056;-72
2024/02/04 00:02:39;;;;;;;8.95;5.00;;;;;;;2.54;100.00;97846.47;5042013;28;20407;-72
2024/02/04 00:05:05;;;;;;;8.63;4.57;;;;;;;2.59;100.00;97849.13;5034955;28;20039;-71
2024/02/04 00:07:31;;;;;;;9.10;5.13;;;;;;;2.74;100.00;97850.03;5038798;28;20045;-74
2024/02/04 00:09:56;;;;;;;9.73;5.45;;;;;;;2.63;100.00;97863.69;5034999;28;20032;-71
2024/02/04 00:12:22;;;;;;;8.13;5.25;;;;;;;2.72;100.00;97857.63;5033351;28;21002;-71
2024/02/04 00:14:49;;;;;;;6.50;5.05;;;;;;;2.74;100.00;97872.50;5034911;28;20033;-71
2024/02/04 00:17:15;;;;;;;6.85;4.85;;;;;;;2.58;100.00;97862.94;5031663;28;20041;-71
2024/02/04 00:19:41;;;;;;;9.32;5.63;;;;;;;2.52;100.00;97878.41;5039840;28;20106;-73
2024/02/04 00:22:07;;;;;;;24.58;12.68;;;;;;;2.55;100.00;97890.53;5050810;28;20037;-73
2024/02/04 00:24:32;;;;;;;9.18;5.60;;;;;;;2.49;100.00;97897.91;5034707;28;20029;-74
2024/02/04 00:26:57;;;;;;;9.68;5.75;;;;;;;2.46;100.00;97901.16;5033766;28;20033;-73
2024/02/04 00:29:23;;;;;;;10.73;5.53;;;;;;;2.53;100.00;97906.25;5050092;28;20072;-72
2024/02/04 00:31:48;;;;;;;11.65;5.68;;;;;;;2.48;100.00;97904.38;5039953;28;20036;-72
2024/02/04 00:34:14;;;;;;;10.50;6.30;;;;;;;2.61;100.00;97909.16;5035694;28;20064;-73
2024/02/04 00:36:39;;;;;;;11.23;6.90;;;;;;;2.58;100.00;97917.03;5031179;28;20041;-71
2024/02/04 00:39:05;;;;;;;11.10;6.63;;;;;;;2.60;100.00;97915.63;5023767;28;20038;-72
2024/02/04 00:41:30;;;;;;;12.13;7.10;;;;;;;2.55;100.00;97914.88;5026915;28;20584;-74
2024/02/04 00:43:55;;;;;;;9.05;6.10;;;;;;;2.61;100.00;97922.66;5033999;28;20079;-74
2024/02/04 00:46:21;;;;;;;11.98;6.80;;;;;;;2.43;100.00;97915.25;5034833;28;20473;-76
2024/02/04 00:48:46;;;;;;;11.38;6.85;;;;;;;2.32;100.00;97909.09;5034738;28;20082;-74
2024/02/04 00:51:13;;;;;;;10.65;7.25;;;;;;;2.47;100.00;97910.91;5037120;28;20049;-74
2024/02/04 00:53:38;;;;;;;12.55;7.50;;;;;;;2.39;100.00;97906.09;5028323;28;20045;-74
2024/02/04 00:56:04;;;;;;;12.20;7.15;;;;;;;2.32;100.00;97911.00;5030958;28;20074;-74
2024/02/04 00:58:30;;;;;;;12.73;7.63;;;;;;;2.29;100.00;97915.09;5032520;28;20037;-74
2024/02/04 01:00:55;;;;;;;10.70;7.43;;;;;;;2.09;100.00;97910.66;5037997;28;20067;-73
2024/02/04 01:03:21;;;;;;;12.30;6.90;;;;;;;2.08;100.00;97903.63;5035305;28;20527;-72
2024/02/04 01:05:46;;;;;;;9.63;6.53;;;;;;;2.09;100.00;97897.94;5040475;28;20033;-72
2024/02/04 01:08:11;;;;;;;11.75;7.15;;;;;;;2.01;100.00;97900.44;5026689;28;20138;-72
2024/02/04 01:10:37;;;;;;;13.18;7.63;;;;;;;2.01;100.00;97890.44;5036264;28;20076;-72
2024/02/04 01:13:04;;;;;;;12.73;7.00;;;;;;;1.97;100.00;97886.69;5030393;28;20049;-69
2024/02/04 01:15:29;;;;;;;10.40;6.82;;;;;;;1.96;100.00;97885.06;5040041;28;20056;-73
2024/02/04 01:17:55;;;;;;;11.82;7.38;;;;;;;1.92;100.00;97884.00;5040825;28;20396;-72
2024/02/04 01:20:20;;;;;;;11.02;6.88;;;;;;;1.96;100.00;97868.84;5033505;28;20252;-73
2024/02/04 01:22:45;;;;;;;10.80;7.15;;;;;;;1.89;100.00;97860.25;5055391;28;20033;-70
2024/02/04 01:25:11;;;;;;;10.50;7.22;;;;;;;1.76;100.00;97861.69;5039664;28;20038;-73
2024/02/04 01:27:36;;;;;;;11.68;7.03;;;;;;;1.79;100.00;97857.63;5029536;28;20087;-73
2024/02/04 01:30:02;;;;;;;14.48;8.02;;;;;;;1.71;100.00;97867.97;5036953;28;20037;-70
2024/02/04 01:32:27;;;;;;;14.20;8.52;;;;;;;1.56;100.00;97878.84;5019340;28;20041;-76
2024/02/04 01:34:53;;;;;;;10.95;7.50;;;;;;;1.51;100.00;97879.69;5033779;28;20033;-74
2024/02/04 01:37:18;;;;;;;11.73;7.68;;;;;;;1.46;100.00;97877.00;5053608;28;20045;-71
2024/02/04 01:39:44;;;;;;;12.98;8.65;;;;;;;1.37;100.00;97886.78;5072507;28;20033;-71
2024/02/04 01:42:10;;;;;;;12.63;7.65;;;;;;;1.46;100.00;97876.19;5041063;28;20044;-73
2024/02/04 01:44:36;;;;;;;13.30;7.85;;;;;;;1.29;100.00;97873.84;5038871;28;20037;-75
2024/02/04 01:47:01;;;;;;;12.60;7.57;;;;;;;1.17;100.00;97873.38;5039920;28;20064;-71
2024/02/04 01:49:27;;;;;;;13.27;8.60;;;;;;;1.14;100.00;97878.22;5054297;28;20376;-73
2024/02/04 01:51:53;;;;;;;12.60;7.97;;;;;;;1.17;100.00;97878.75;5047670;28;20068;-74
2024/02/04 01:54:19;;;;;;;13.80;8.02;;;;;;;1.22;100.00;97876.03;5033989;28;20068;-72
2024/02/04 01:56:46;;;;;;;13.90;9.95;;;;;;;1.10;100.00;97873.69;5037281;28;20037;-73
2024/02/04 01:59:13;;;;;;;15.40;9.38;;;;;;;1.04;100.00;97867.47;5034482;28;20052;-75
2024/02/04 02:01:39;;;;;;;13.95;9.32;;;;;;;0.98;100.00;97867.78;5038910;28;20395;-76
2024/02/04 02:04:05;;;;;;;14.85;8.82;;;;;;;1.17;100.00;97863.41;5034336;28;20037;-73
2024/02/04 02:06:31;;;;;;;13.40;8.70;;;;;;;1.29;100.00;97865.75;5044390;28;20816;-74
2024/02/04 02:09:00;;;;;;;14.48;8.75;;;;;;;1.26;100.00;97861.72;5030797;28;20049;-73
2024/02/04 02:11:47;;;;;;;16.13;9.15;;;;;;;1.44;100.00;97854.06;5028624;28;20522;-75
2024/02/04 02:14:19;;;;;;;15.70;9.13;;;;;;;1.47;100.00;97856.22;5039551;28;20407;-73
2024/02/04 02:16:47;;;;;;;18.40;8.68;;;;;;;1.55;100.00;97844.84;5043816;28;20041;-72
2024/02/04 02:19:29;;;;;;;15.77;9.40;;;;;;;1.51;100.00;97852.69;5037441;28;20055;-72
2024/02/04 02:22:21;;;;;;;13.55;8.77;;;;;;;1.67;100.00;97864.19;5042501;28;20041;-72
2024/02/04 02:24:47;;;;;;;13.77;8.45;;;;;;;1.70;100.00;97857.44;5051572;28;20037;-73
2024/02/04 02:27:12;;;;;;;14.48;9.32;;;;;;;1.67;100.00;97852.56;5028094;28;20049;-73
2024/02/04 02:29:37;;;;;;;16.00;10.38;;;;;;;1.69;100.00;97840.41;5048621;28;20041;-75
2024/02/04 02:32:03;;;;;;;11.52;8.10;;;;;;;1.65;100.00;97847.44;5033919;28;20049;-72
2024/02/04 02:34:30;;;;;;;13.15;8.82;;;;;;;1.53;100.00;97834.31;5034531;28;20044;-75
2024/02/04 02:37:02;;;;;;;13.80;9.20;;;;;;;1.51;100.00;97841.06;5042968;28;20036;-74
2024/02/04 02:39:32;;;;;;;14.25;9.15;;;;;;;1.46;100.00;97838.38;5045382;28;20103;-73
2024/02/04 02:42:01;;;;;;;12.82;8.65;;;;;;;1.52;100.00;97831.88;5058136;28;20051;-72
2024/02/04 02:44:27;;;;;;;17.58;10.02;;;;;;;1.69;100.00;97835.03;5037568;28;20041;-74
2024/02/04 02:46:55;;;;;;;12.80;7.97;;;;;;;1.91;100.00;97829.19;5042028;28;20032;-75
2024/02/04 02:49:21;;;;;;;13.93;8.68;;;;;;;2.06;100.00;97835.53;5038268;28;20041;-76
2024/02/04 02:51:46;;;;;;;12.40;8.20;;;;;;;2.06;100.00;97836.34;5045722;28;20037;-74
2024/02/04 02:54:11;;;;;;;12.43;8.07;;;;;;;2.15;100.00;97838.44;5026481;28;20127;-74
2024/02/04 02:56:37;;;;;;;11.32;7.65;;;;;;;2.22;100.00;97847.03;5039701;28;20111;-75
2024/02/04 02:59:03;;;;;;;10.88;7.57;;;;;;;2.23;100.00;97843.22;5015713;28;20037;-73
2024/02/04 03:01:29;;;;;;;12.75;8.18;;;;;;;2.26;100.00;97846.16;5057300;28;20044;-75
2024/02/04 03:03:54;;;;;;;11.73;7.38;;;;;;;2.46;100.00;97836.25;5057900;28;20048;-75
2024/02/04 03:06:19;;;;;;;12.82;8.13;;;;;;;2.31;100.00;97834.50;5033599;28;21494;-75
2024/02/04 03:08:45;;;;;;;13.73;7.75;;;;;;;2.20;100.00;97843.81;5031022;28;20045;-74
2024/02/04 03:11:10;;;;;;;11.65;8.25;;;;;;;2.08;100.00;97849.56;5024266;28;20360;-74
2024/02/04 03:13:39;;;;;;;20.55;11.45;;;;;;;2.09;100.00;97854.72;5041273;28;20060;-73
2024/02/04 03:16:04;;;;;;;19.58;11.02;;;;;;;2.10;100.00;97847.41;5028055;28;20067;-74
2024/02/04 03:18:30;;;;;;;14.70;9.02;;;;;;;2.24;100.00;97845.66;5038820;28;20694;-74
2024/02/04 03:20:55;;;;;;;12.20;8.05;;;;;;;2.41;100.00;97857.94;5041853;28;20040;-73
2024/02/04 03:23:20;;;;;;;12.05;8.13;;;;;;;2.51;100.00;97860.56;5036921;28;20049;-74
2024/02/04 03:25:46;;;;;;;12.35;7.95;;;;;;;2.55;100.00;97858.88;5038393;28;20069;-74
2024/02/04 03:28:11;;;;;;;12.38;6.97;;;;;;;2.64;100.00;97867.19;5051976;28;20060;-73
2024/02/04 03:30:37;;;;;;;12.27;7.63;;;;;;;2.54;100.00;97875.38;5041264;28;20553;-74
2024/02/04 03:33:02;;;;;;;13.43;8.90;;;;;;;2.62;100.00;97869.38;5036033;28;20056;-72
2024/02/04 03:35:27;;;;;;;11.98;7.82;;;;;;;2.67;100.00;97870.13;5039270;28;20049;-72
2024/02/04 03:37:53;;;;;;;11.68;7.78;;;;;;;2.76;100.00;97867.59;5040539;28;20037;-73
2024/02/04 03:40:19;;;;;;;12.02;7.72;;;;;;;2.90;100.00;97880.44;5034792;28;20053;-75
2024/02/04 03:42:44;;;;;;;12.48;7.80;;;;;;;2.90;100.00;97883.13;5037266;28;20037;-74
2024/02/04 03:45:10;;;;;;;11.38;7.63;;;;;;;3.02;100.00;97888.97;5013151;28;20045;-73
2024/02/04 03:47:35;;;;;;;12.07;7.78;;;;;;;2.97;100.00;97891.72;5049267;28;20057;-72
2024/02/04 03:50:00;;;;;;;12.02;7.22;;;;;;;2.83;100.00;97880.78;5026307;28;20106;-74
2024/02/04 03:52:26;;;;;;;13.38;7.70;;;;;;;2.86;100.00;97883.72;5037032;28;20434;-75
2024/02/04 03:54:51;;;;;;;13.10;8.18;;;;;;;2.84;100.00;97894.00;5041678;28;20140;-73
2024/02/04 03:57:17;;;;;;;11.93;8.60;;;;;;;3.06;100.00;97896.22;5031231;28;20045;-75
2024/02/04 03:59:46;;;;;;;14.20;7.90;;;;;;;3.00;100.00;97889.25;5038497;28;20455;-74
2024/02/04 04:02:11;;;;;;;12.65;8.15;;;;;;;3.13;100.00;97900.47;5039578;28;20072;-72
2024/02/04 04:04:40;;;;;;;12.02;7.82;;;;;;;3.19;100.00;97900.13;5032184;28;20057;-73
2024/02/04 04:07:05;;;;;;;11.83;8.13;;;;;;;3.17;100.00;97901.50;5036351;28;20041;-73
2024/02/04 04:09:31;;;;;;;11.77;7.45;;;;;;;3.17;100.00;97904.22;5030243;28;20057;-74
2024/02/04 04:11:56;;;;;;;10.85;7.38;;;;;;;3.13;100.00;97906.69;5026753;28;20136;-73
2024/02/04 04:14:22;;;;;;;11.77;7.95;;;;;;;3.16;100.00;97900.72;5032597;28;20076;-72
2024/02/04 04:16:47;;;;;;;11.55;7.75;;;;;;;3.13;100.00;97909.41;5030552;28;20045;-74
2024/02/04 04:19:13;;;;;;;14.23;8.40;;;;;;;3.18;100.00;97913.97;5034342;28;20049;-72
2024/02/04 04:21:40;;;;;;;11.57;7.75;;;;;;;3.43;100.00;97913.66;5039754;28;20096;-72
2024/02/04 04:24:05;;;;;;;13.02;8.10;;;;;;;3.38;100.00;97911.00;5029237;28;20069;-72
2024/02/04 04:26:31;;;;;;;13.25;7.95;;;;;;;3.29;100.00;97920.06;5029494;28;20129;-72
2024/02/04 04:28:57;;;;;;;11.85;7.70;;;;;;;3.32;100.00;97917.59;5056262;28;20064;-72
2024/02/04 04:31:22;;;;;;;12.23;8.48;;;;;;;3.44;100.00;97914.47;5034092;28;20325;-73
2024/02/04 04:33:47;;;;;;;12.93;8.00;;;;;;;3.47;100.00;97913.88;5040477;28;20040;-73
2024/02/04 04:36:13;;;;;;;11.25;7.18;;;;;;;3.68;100.00;97900.88;5050185;28;20568;-73
2024/02/04 04:38:38;;;;;;;22.70;12.98;;;;;;;3.56;100.00;97892.38;5038603;28;20043;-75
2024/02/04 04:41:03;;;;;;;13.43;8.85;;;;;;;3.34;100.00;97885.59;5027388;28;20717;-73
2024/02/04 04:43:29;;;;;;;14.55;9.18;;;;;;;3.28;100.00;97883.22;5054288;28;20053;-74
2024/02/04 04:45:55;;;;;;;12.40;8.35;;;;;;;3.20;100.00;97879.28;5054513;28;20124;-75
2024/02/04 04:48:20;;;;;;;12.30;7.90;;;;;;;3.16;100.00;97892.59;5033584;28;20515;-75
2024/02/04 04:50:46;;;;;;;13.48;8.77;;;;;;;3.03;100.00;97893.28;5030542;28;20522;-75
2024/02/04 04:53:12;;;;;;;12.85;8.10;;;;;;;3.06;100.00;97896.22;5025983;28;20037;-73
2024/02/04 04:55:37;;;;;;;12.90;8.23;;;;;;;3.17;100.00;97902.34;5038526;28;20518;-74
2024/02/04 04:58:03;;;;;;;14.55;7.38;;;;;;;3.25;100.00;97906.28;5034694;28;20037;-73
2024/02/04 05:00:28;;;;;;;12.68;7.68;;;;;;;3.38;100.00;97905.56;5023585;28;20073;-74
2024/02/04 05:02:54;;;;;;;15.93;7.93;;;;;;;3.36;100.00;97902.34;5038147;28;20040;-74
2024/02/04 05:05:19;;;;;;;11.80;7.60;;;;;;;3.49;100.00;97908.16;5035345;28;20488;-74
2024/02/04 05:07:46;;;;;;;12.35;7.60;;;;;;;3.42;100.00;97908.50;5023860;28;20442;-74
2024/02/04 05:10:12;;;;;;;13.10;7.15;;;;;;;3.43;100.00;97915.56;5024416;28;20511;-74
2024/02/04 05:12:37;;;;;;;11.35;6.95;;;;;;;3.48;100.00;97915.50;5031057;28;20049;-73
2024/02/04 05:15:04;;;;;;;10.60;7.00;;;;;;;3.54;100.00;97925.16;5030915;28;20721;-71
2024/02/04 05:17:30;;;;;;;12.27;6.88;;;;;;;3.46;100.00;97925.81;5023259;28;20392;-73
2024/02/04 05:19:55;;;;;;;13.38;7.40;;;;;;;3.49;100.00;97919.00;5031446;28;20037;-75
2024/02/04 05:22:21;;;;;;;15.63;6.78;;;;;;;3.59;100.00;97916.16;5026802;28;20296;-75
2024/02/04 05:24:46;;;;;;;9.65;6.57;;;;;;;3.56;100.00;97911.31;5032765;28;20044;-75
2024/02/04 05:27:11;;;;;;;9.73;6.50;;;;;;;3.47;100.00;97908.44;5031140;28;20041;-75
2024/02/04 05:29:37;;;;;;;10.00;6.60;;;;;;;3.47;100.00;97904.94;5030792;28;20041;-74
2024/02/04 05:32:02;;;;;;;9.95;6.57;;;;;;;3.41;100.00;97906.91;5045213;28;20134;-73
2024/02/04 05:34:30;;;;;;;8.45;5.55;;;;;;;3.44;100.00;97914.47;5026478;28;20103;-75
2024/02/04 05:36:55;;;;;;;7.78;4.80;;;;;;;3.48;100.00;97915.50;5038018;28;20124;-74
2024/02/04 05:39:23;;;;;;;7.18;4.65;;;;;;;3.50;100.00;97920.63;5032672;28;20136;-74
2024/02/04 05:41:48;;;;;;;13.82;4.57;;;;;;;3.60;100.00;97918.59;5024108;28;20038;-72
2024/02/04 05:44:14;;;;;;;9.68;5.47;;;;;;;3.67;100.00;97909.28;5029157;28;20116;-74
2024/02/04 05:46:39;;;;;;;7.65;5.03;;;;;;;3.67;100.00;97920.13;5033278;28;20483;-75
2024/02/04 05:49:05;;;;;;;10.27;4.10;;;;;;;3.70;100.00;97922.25;5025997;28;20388;-74
2024/02/04 05:51:48;;;;;;;7.30;3.97;;;;;;;3.85;100.00;97922.03;5040809;28;20045;-75
2024/02/04 05:54:14;;;;;;;7.47;4.32;;;;;;;3.85;100.00;97921.25;5039673;28;20056;-73
2024/02/04 05:56:39;;;;;;;4.65;3.30;;;;;;;3.81;100.00;97926.44;5035795;28;20041;-75
2024/02/04 05:59:05;;;;;;;6.38;3.47;;;;;;;3.82;100.00;97914.50;5016123;28;20037;-74
2024/02/04 06:01:30;;;;;;;6.28;2.97;;;;;;;3.77;100.00;97917.28;5027667;28;20155;-75
2024/02/04 06:03:56;;;;;;;6.43;3.45;;;;;;;3.71;100.00;97916.56;5043240;22;20046;-73
2024/02/04 06:06:21;;;;;;;5.22;3.53;;;;;;;3.55;100.00;97912.44;4995488;28;21012;-74
2024/02/04 06:08:47;;;;;;;8.43;3.72;;;;;;;3.63;100.00;97912.56;5016991;28;20125;-73
2024/02/04 06:11:13;;;;;;;5.80;4.13;;;;;;;3.75;100.00;97912.16;4993857;28;20073;-73
2024/02/04 06:13:43;;;;;;;6.70;4.82;;;;;;;3.71;100.00;97915.72;5001886;28;20150;-73
2024/02/04 06:16:11;;;;;;;8.82;4.80;;;;;;;3.70;100.00;97914.94;4987632;28;20048;-74
2024/02/04 06:18:38;;;;;;;8.68;4.78;;;;;;;3.72;100.00;97911.94;5001656;28;20048;-73
2024/02/04 06:21:04;;;;;;;5.70;4.15;;;;;;;3.66;100.00;97910.41;4992095;28;20396;-75
2024/02/04 06:23:29;;;;;;;9.43;5.50;;;;;;;3.53;100.00;97918.16;5003461;28;20045;-74
2024/02/04 06:25:55;;;;;;;7.75;4.50;;;;;;;3.56;100.00;97931.09;5006747;28;20052;-73
2024/02/04 06:28:20;;;;;;;8.82;4.32;;;;;;;3.50;100.00;97926.84;4995961;28;20061;-71
2024/02/04 06:30:45;;;;;;;9.48;5.15;;;;;;;3.52;100.00;97919.22;5001924;28;20045;-74
2024/02/04 06:33:11;;;;;;;5.80;4.32;;;;;;;3.52;100.00;97919.22;4998109;28;20062;-74
2024/02/04 06:35:36;;;;;;;6.78;4.47;;;;;;;3.57;100.00;97911.03;4998375;28;20045;-74
2024/02/04 06:38:02;;;;;;;5.03;3.92;;;;;;;3.57;100.00;97913.75;4998508;28;20373;-77
2024/02/04 06:40:27;;;;;;;4.93;3.90;;;;;;;3.55;100.00;97917.84;4988280;28;20460;-73
2024/02/04 06:42:52;;;;;;;6.90;4.10;;;;;;;3.52;100.00;97918.44;5001605;28;20137;-74
2024/02/04 06:45:18;;;;;;;7.20;4.00;;;;;;;3.56;100.00;97916.75;4996479;28;20077;-74
2024/02/04 06:47:44;;;;;;;5.88;4.10;;;;;;;3.59;100.00;97913.47;5007081;28;20046;-73
2024/02/04 06:50:13;;;;;;;4.15;3.20;;;;;;;3.71;100.00;97897.59;4996916;28;20496;-74
2024/02/04 06:52:45;;;;;;;9.07;4.40;;;;;;;3.69;100.00;97897.06;5000211;28;20452;-74
2024/02/04 06:55:10;;;;;;;6.53;3.60;;;;;;;3.79;100.00;97896.91;4986776;28;20046;-74
2024/02/04 06:57:36;;;;;;;6.22;4.00;;;;;;;3.73;100.00;97898.09;4988665;28;20042;-74
2024/02/04 07:00:05;;;;;;;7.82;3.70;;;;;;;3.75;100.00;97897.81;4981184;28;20046;-75
2024/02/04 07:02:31;;;;;;;7.10;4.50;;;;;;;3.72;100.00;97890.25;4981500;28;20049;-74
2024/02/04 07:04:56;;;;;;;5.45;3.92;;;;;;;3.67;100.00;97901.16;4990007;28;20045;-73
2024/02/04 07:07:22;;;;;;;8.70;4.43;;;;;;;3.61;100.00;97895.00;4976569;28;20301;-73
2024/02/04 07:09:47;;;;;;;15.40;8.13;;;;;;;3.56;100.00;97897.78;4998616;28;20049;-74
2024/02/04 07:12:12;;;;;;;9.63;5.50;;;;;;;3.64;100.00;97905.28;5000543;28;20054;-75
2024/02/04 07:14:38;;;;;;;8.88;5.15;;;;;;;3.56;100.00;97911.31;4996039;28;20108;-75
2024/02/04 07:17:03;;;;;;;8.82;5.20;;;;;;;3.50;100.00;97912.50;4998777;28;20580;-74
2024/02/04 07:19:29;;;;;;;8.40;5.00;;;;;;;3.58;100.00;97917.25;5000200;28;20104;-74
2024/02/04 07:21:54;;;;;;;8.98;5.25;;;;;;;3.62;100.00;97923.72;4997992;28;20053;-74
2024/02/04 07:24:21;;;;;;;7.13;4.80;;;;;;;3.66;100.00;97919.31;5007158;28;20128;-74
2024/02/04 07:26:46;;;;;;;8.45;4.15;;;;;;;3.80;100.00;97919.41;5001998;28;20554;-73
2024/02/04 07:29:14;;;;;;;11.73;4.82;;;;;;;3.79;100.00;97921.31;4982941;28;20053;-72
2024/02/04 07:31:40;;;;;;;8.65;4.93;;;;;;;3.92;100.00;97935.22;4990630;28;20508;-72
2024/02/04 07:34:05;;;;;;;13.60;6.28;;;;;;;3.88;100.00;97943.13;4994539;28;20041;-73
2024/02/04 07:36:31;;;;;;;10.35;4.68;;;;;;;3.94;100.00;97936.56;4999543;28;20068;-73
2024/02/04 07:38:56;;;;;;;7.93;5.22;;;;;;;3.99;100.00;97933.75;4991068;28;20057;-72
2024/02/04 07:41:22;;;;;;;11.25;5.35;;;;;;;3.94;100.00;97935.75;4986641;28;20154;-72
2024/02/04 07:43:48;;;;;;;11.30;4.47;;;;;;;4.17;100.00;97936.75;4999386;28;20049;-72
2024/02/04 07:46:14;;;;;;;7.13;3.95;;;;;;;4.34;100.00;97922.66;5002855;28;20631;-72
2024/02/04 07:48:39;;;;;;;10.70;6.63;;;;;;;4.35;100.00;97925.06;5000595;28;20479;-72
2024/02/04 07:51:05;;;;;;;10.35;5.72;;;;;;;4.36;100.00;97921.28;5000430;28;20050;-73
2024/02/04 07:53:30;;;;;;;12.32;6.90;;;;;;;4.47;100.00;97927.34;5010966;28;20049;-74
2024/02/04 07:55:56;;;;;;;10.35;6.40;;;;;;;4.53;100.00;97928.06;5007511;28;20049;-73
2024/02/04 07:58:21;;;;;;;11.73;6.20;;;;;;;4.50;100.00;97926.75;5002037;28;20643;-76
2024/02/04 08:00:46;;;;;;;18.23;8.77;;;;;;;4.49;100.00;97930.56;5020064;28;20072;-74
2024/02/04 08:03:12;;;;;;;17.75;8.35;;;;;;;4.31;100.00;97942.25;4999099;28;20053;-72
2024/02/04 08:05:37;;;;;;;13.30;7.82;;;;;;;4.40;100.00;97943.19;4982013;28;20086;-74
2024/02/04 08:08:03;;;;;;;13.80;8.57;;;;;;;4.42;100.00;97938.28;5002738;28;20050;-74
2024/02/04 08:10:29;;;;;;;15.57;8.57;;;;;;;4.40;100.00;97930.44;5014361;28;20053;-73
2024/02/04 08:12:54;;;;;;;13.93;7.45;;;;;;;4.45;100.00;97926.00;5006059;28;20042;-73
2024/02/04 08:15:20;;;;;;;14.95;7.40;;;;;;;4.51;100.00;97931.06;4996203;28;20045;-75
2024/02/04 08:17:46;;;;;;;14.70;7.85;;;;;;;4.48;100.00;97912.66;4998742;28;20521;-73
2024/02/04 08:20:12;;;;;;;13.77;7.00;;;;;;;4.58;100.00;97909.78;4994489;28;20558;-73
2024/02/04 08:22:37;;;;;;;12.88;7.68;;;;;;;4.56;100.00;97898.44;4990520;28;20081;-72
2024/02/04 08:25:05;;;;;;;12.82;8.07;;;;;;;4.60;100.00;97885.06;5001113;28;20069;-74
2024/02/04 08:27:30;;;;;;;16.25;9.40;;;;;;;4.58;100.00;97885.38;4973846;28;20046;-72
2024/02/04 08:29:56;;;;;;;17.90;10.25;;;;;;;4.71;100.00;97889.19;4983107;28;20073;-72
2024/02/04 08:32:21;;;;;;;18.65;9.70;;;;;;;4.91;100.00;97892.66;5000766;28;20888;-75
2024/02/04 08:34:47;;;;;;;16.33;9.93;;;;;;;5.01;100.00;97892.47;5002219;28;20040;-73
2024/02/04 08:37:12;;;;;;;16.63;9.95;;;;;;;5.14;100.00;97886.22;4985501;28;20136;-72
2024/02/04 08:39:37;;;;;;;19.90;10.35;;;;;;;5.01;100.00;97888.97;4999502;28;20053;-72
2024/02/04 08:42:03;;;;;;;18.17;10.82;;;;;;;4.92;100.00;97897.00;4986074;28;20077;-74
2024/02/04 08:44:28;;;;;;;22.75;11.43;;;;;;;4.81;100.00;97900.97;4981831;28;20042;-72
2024/02/04 08:46:55;;;;;;;18.58;10.85;;;;;;;4.97;100.00;97902.31;4994802;28;20068;-70
2024/02/04 08:49:21;;;;;;;19.13;11.90;;;;;;;5.00;100.00;97909.84;5005899;28;20526;-72
2024/02/04 08:51:46;;;;;;;15.45;9.25;;;;;;;5.04;100.00;97904.63;4991743;28;20042;-73
2024/02/04 08:54:12;;;;;;;15.52;10.00;;;;;;;5.24;100.00;97903.41;4995585;28;20056;-72
2024/02/04 08:56:37;;;;;;;16.67;9.07;;;;;;;5.34;100.00;97893.16;4999405;28;20447;-72
2024/02/04 08:59:02;;;;;;;16.48;8.65;;;;;;;5.39;100.00;97908.56;4997057;28;20038;-73
2024/02/04 09:01:28;;;;;;;10.07;6.25;;;;;;;5.54;100.00;97907.44;4997431;28;20095;-73
2024/02/04 09:03:53;;;;;;;7.43;4.82;;;;;;;5.54;100.00;97905.50;4998421;28;20125;-71
2024/02/04 09:06:19;;;;;;;10.65;5.18;;;;;;;5.75;100.00;97899.66;4994573;28;20084;-71
2024/02/04 09:08:44;;;;;;;8.77;5.97;;;;;;;5.96;100.00;97889.16;4999642;28;20041;-74
2024/02/04 09:11:09;;;;;;;9.43;5.63;;;;;;;6.23;100.00;97890.16;4996343;28;20041;-73
2024/02/04 09:13:35;;;;;;;10.25;5.97;;;;;;;6.13;100.00;97888.50;5002121;28;20493;-73
2024/02/04 09:16:00;;;;;;;8.75;6.13;;;;;;;6.42;100.00;97885.31;5006226;28;20065;-73
2024/02/04 09:18:25;;;;;;;10.10;6.03;;;;;;;6.60;100.00;97893.59;4976927;28;20046;-73
2024/02/04 09:20:51;;;;;;;9.80;5.97;;;;;;;6.75;100.00;97890.47;4985295;28;20057;-72
2024/02/04 09:23:16;;;;;;;9.85;5.55;;;;;;;6.94;100.00;97893.00;4998028;28;20144;-73
2024/02/04 09:25:42;;;;;;;10.35;6.03;;;;;;;6.97;100.00;97897.00;5010462;28;20049;-72
2024/02/04 09:28:07;;;;;;;9.45;6.25;;;;;;;6.81;100.00;97897.41;4998211;28;20136;-73
2024/02/04 09:30:32;;;;;;;9.98;5.95;;;;;;;6.47;100.00;97885.19;5002704;28;20492;-73
2024/02/04 09:32:58;;;;;;;11.57;6.45;;;;;;;6.32;100.00;97880.16;5002481;28;20046;-73
2024/02/04 09:35:23;;;;;;;12.18;6.30;;;;;;;5.94;100.00;97873.13;4998037;28;20224;-73
2024/02/04 09:37:48;;;;;;;11.30;6.45;;;;;;;5.86;100.00;97862.97;5005321;28;20069;-73
2024/02/04 09:40:14;;;;;;;9.30;5.18;;;;;;;6.26;100.00;97879.44;5000322;28;20056;-74
2024/02/04 09:42:40;;;;;;;9.63;5.68;;;;;;;6.57;100.00;97883.34;5006689;28;20050;-73
2024/02/04 09:45:06;;;;;;;7.22;4.53;;;;;;;7.00;100.00;97894.44;4994951;28;20519;-71
2024/02/04 09:47:34;;;;;;;6.93;4.07;;;;;;;7.35;100.00;97883.69;5003337;28;20045;-74
2024/02/04 09:49:59;;;;;;;13.82;5.63;;;;;;;7.64;100.00;97879.59;4991021;28;20132;-74
2024/02/04 09:52:32;;;;;;;6.10;3.90;;;;;;;7.32;100.00;97881.59;5009407;28;20605;-72
2024/02/04 09:55:03;;;;;;;8.60;4.35;;;;;;;7.27;100.00;97876.28;5002746;28;20137;-73
2024/02/04 09:57:34;;;;;;;7.85;4.30;;;;;;;7.18;100.00;97894.53;4995470;28;20874;-72
2024/02/04 09:59:59;;;;;;;7.50;3.75;;;;;;;7.14;100.00;97882.66;5012298;28;20059;-72
2024/02/04 10:02:25;;;;;;;7.82;3.88;;;;;;;7.21;100.00;97872.09;4996252;28;20054;-72
2024/02/04 10:04:51;;;;;;;6.20;3.72;;;;;;;6.97;100.00;97869.75;5010672;28;20128;-72
2024/02/04 10:07:18;;;;;;;5.45;3.58;;;;;;;7.69;100.00;97873.16;5003953;28;20046;-71
2024/02/04 10:09:44;;;;;;;6.43;3.30;;;;;;;7.58;100.00;97878.13;5008396;28;20073;-71
2024/02/04 10:12:10;;;;;;;6.05;3.20;;;;;;;8.31;100.00;97878.31;4997363;28;20408;-72
2024/02/04 10:14:36;;;;;;;6.10;3.20;;;;;;;7.99;100.00;97883.13;5008734;28;20068;-71
2024/02/04 10:17:01;;;;;;;7.40;3.40;;;;;;;7.52;100.00;97872.00;5008059;28;20041;-71
2024/02/04 10:19:26;;;;;;;6.65;3.90;;;;;;;7.60;100.00;97890.31;5009523;28;20037;-71
2024/02/04 10:22:03;;;;;;;5.90;3.05;;;;;;;7.94;100.00;97888.78;5002306;28;20125;-71
2024/02/04 10:24:28;;;;;;;6.25;3.50;;;;;;;8.32;100.00;97887.28;5005458;28;20045;-71
2024/02/04 10:26:57;;;;;;;6.50;3.47;;;;;;;8.79;100.00;97888.22;5009810;28;20041;-72
2024/02/04 10:29:24;;;;;;;8.85;4.03;;;;;;;8.75;100.00;97891.91;5004180;28;20332;-72
2024/02/04 10:31:57;;;;;;;6.20;3.22;;;;;;;9.23;100.00;97893.53;4992957;28;20441;-72
2024/02/04 10:34:27;;;;;;;6.40;3.67;;;;;;;8.82;100.00;97889.47;5005337;28;20329;-71
2024/02/04 10:36:52;;;;;;;;;;;;;;;8.67;100.00;97876.38;5004520;28;20041;-71
2024/02/04 10:39:17;;;;;;;8.60;4.15;;;;;;;8.07;100.00;97872.53;5009785;28;19917;-71
2024/02/04 10:41:50;;;;;;;6.13;3.65;;;;;;;7.97;100.00;97869.00;5009423;28;20068;-72
2024/02/04 10:44:17;;;;;;;7.30;3.83;;;;;;;8.35;100.00;97873.00;4978285;28;20053;-72
2024/02/04 10:46:49;;;;;;;6.30;3.22;;;;;;;8.69;100.00;97863.19;5003820;28;20066;-71
2024/02/04 10:49:15;;;;;;;6.55;3.33;;;;;;;9.07;100.00;97862.41;5001240;28;20457;-73
2024/02/04 10:51:42;;;;;;;8.60;3.15;;;;;;;9.29;100.00;97884.03;5009343;28;20088;-72
2024/02/04 10:54:08;;;;;;;8.73;3.10;;;;;;;9.43;100.00;97877.50;5004138;28;20078;-72
2024/02/04 10:56:41;;;;;;;6.22;3.08;;;;;;;9.65;100.00;97874.50;5009377;28;20419;-71
2024/02/04 10:59:07;;;;;;;4.40;2.95;;;;;;;8.97;100.00;97867.09;5001330;28;20586;-73
2024/02/04 11:01:33;;;;;;;5.63;2.70;;;;;;;9.06;100.00;97858.88;5004264;28;20080;-72
2024/02/04 11:04:00;;;;;;;4.95;3.47;;;;;;;9.22;100.00;97850.94;4991732;28;20045;-73
2024/02/04 11:06:26;;;;;;;4.80;2.63;;;;;;;9.03;100.00;97837.66;5005813;28;20065;-73
2024/02/04 11:08:53;;;;;;;5.93;2.92;;;;;;;8.97;100.00;97842.50;4992518;28;20046;-73
2024/02/04 11:11:22;;;;;;;4.05;2.20;;;;;;;9.52;100.00;97831.75;5001255;28;20073;-73
2024/02/04 11:13:48;;;;;;;5.03;2.80;;;;;;;9.71;100.00;97829.38;5010707;28;20315;-72
2024/02/04 11:16:46;;;;;;;7.38;3.35;;;;;;;9.41;100.00;97817.69;5005159;28;20296;-72
2024/02/04 11:19:27;;;;;;;7.50;4.03;;;;;;;9.30;100.00;97814.53;4977285;28;20578;-71
2024/02/04 11:22:12;;;;;;;5.18;2.58;;;;;;;9.68;100.00;97813.63;5002860;28;20042;-72
2024/02/04 11:25:07;;;;;;;3.60;2.45;;;;;;;10.02;100.00;97808.22;5003295;28;20075;-72